sensor_id;sensor_type;location;lat;lon;timestamp;pressure;altitude;pressure_sealevel;temperature;humidity
15558;BME280;7880;50.110;9.372;2023-03-16T00:03:30;-1.3259556251985487;;;-1.5;100.0
15558;BME280;7880;50.110;9.372;2023-03-16T00:08:44;-1.2856226711010095;;;-1.437;100.0
15558;BME280;7880;50.110;9.372;2023-03-16T00:13:38;-1.3360388608125504;;;-1.375;100.0
15558;BME280;7880;50.110;9.372;2023-03-16T00:18:45;-1.5074536881351377;;;-1.5;100.0
15558;BME280;7880;50.110;9.372;2023-03-16T00:23:54;-1.5881193728127982;;;-1.625;100.0
15558;BME280;7880;50.110;9.372;2023-03-16T00:28:54;-1.5377033286204096;;;-1.687;100.0
15558;BME280;7880;50.110;9.372;2023-03-16T00:34:02;-1.5679529586283025;;;-1.687;100.0
15558;BME280;7880;50.110;9.372;2023-03-16T00:38:58;-1.53266172260046;;;-1.625;100.0
15558;BME280;7880;50.110;9.372;2023-03-16T00:44:03;-1.7292841417191085;;;-1.812;100.0
15558;BME280;7880;50.110;9.372;2023-03-16T00:49:16;-1.7091177601309027;;;-1.812;100.0
15558;BME280;7880;50.110;9.372;2023-03-16T00:54:10;-1.7192009515070823;;;-1.812;100.0
15558;BME280;7880;50.110;9.372;2023-03-16T00:59:15;-1.8049080312019214;;;-1.937;100.0
15558;BME280;7880;50.110;9.372;2023-03-16T01:04:24;-1.69903456759057;;;-1.812;100.0
15558;BME280;7880;50.110;9.372;2023-03-16T01:09:22;-1.673826581146568;;;-1.75;100.0
15558;BME280;7880;50.110;9.372;2023-03-16T01:14:27;-1.7595337053702678;;;-1.875;100.0
15558;BME280;7880;50.110;9.372;2023-03-16T01:19:29;-1.8603655085375066;;;-2.0;100.0
15558;BME280;7880;50.110;9.372;2023-03-16T01:24:32;-1.875490268971771;;;-1.937;100.0
15558;BME280;7880;50.110;9.372;2023-03-16T01:29:36;-1.8956566121429206;;;-1.937;100.0
15558;BME280;7880;50.110;9.372;2023-03-16T01:34:39;-1.8401991572172847;;;-1.937;100.0
15558;BME280;7880;50.110;9.372;2023-03-16T01:39:43;-1.825074390671216;;;-1.875;100.0
15558;BME280;7880;50.110;9.372;2023-03-16T01:44:53;-1.9813635186699685;;;-1.937;100.0
15558;BME280;7880;50.110;9.372;2023-03-16T01:49:55;-1.9813635186699685;;;-2.062;100.0
15558;BME280;7880;50.110;9.372;2023-03-16T01:54:58;-1.991446678614011;;;-2.062;100.0
15558;BME280;7880;50.110;9.372;2023-03-16T02:00:20;-2.0469040374970064;;;-2.062;100.0
15558;BME280;7880;50.110;9.372;2023-03-16T02:05:18;-1.941030867252266;;;-2.0;100.0
15558;BME280;7880;50.110;9.372;2023-03-16T02:10:18;-1.9611971952894236;;;-2.0;100.0
15558;BME280;7880;50.110;9.372;2023-03-16T02:15:51;-2.0216961514612195;;;-2.062;100.0
15558;BME280;7880;50.110;9.372;2023-03-16T02:20:37;-1.941030867252266;;;-2.0;100.0
15558;BME280;7880;50.110;9.372;2023-03-16T02:25:49;-2.0065714163472874;;;-2.0;100.0
15558;BME280;7880;50.110;9.372;2023-03-16T02:30:42;-1.9359892845153808;;;-2.0;100.0
15558;BME280;7880;50.110;9.372;2023-03-16T02:35:50;-1.9813635186699685;;;-1.937;100.0
15558;BME280;7880;50.110;9.372;2023-03-16T02:40:57;-1.9662387765711173;;;-1.937;100.0
15558;BME280;7880;50.110;9.372;2023-03-16T02:45:59;-2.102361361164367;;;-2.125;100.0
15558;BME280;7880;50.110;9.372;2023-03-16T02:51:02;-2.183026496361708;;;-2.125;100.0
15558;BME280;7880;50.110;9.372;2023-03-16T02:56:06;-2.0872366400202735;;;-2.062;100.0
15558;BME280;7880;50.110;9.372;2023-03-16T03:01:07;-1.9662387765711173;;;-1.937;100.0
15558;BME280;7880;50.110;9.372;2023-03-16T03:06:13;-2.102361361164367;;;-2.062;100.0
15558;BME280;7880;50.110;9.372;2023-03-16T03:10:54;-1.9712803575617728;;;-1.937;100.0
15558;BME280;7880;50.110;9.372;2023-03-16T03:15:57;-1.8805318552011159;;;-1.812;100.0
15558;BME280;7880;50.110;9.372;2023-03-16T03:21:03;-1.7393673307669815;;;-1.75;100.0
15558;BME280;7880;50.110;9.372;2023-03-16T03:26:07;-1.7696168909256813;;;-1.75;100.0
15558;BME280;7880;50.110;9.372;2023-03-16T03:31:13;-1.7192009515070823;;;-1.687;100.0
15558;BME280;7880;50.110;9.372;2023-03-16T03:36:14;-1.658701785787707;;;-1.625;100.0
15558;BME280;7880;50.110;9.372;2023-03-16T03:41:23;-1.7797000753169414;;;-1.625;100.0
15558;BME280;7880;50.110;9.372;2023-03-16T03:46:29;-1.6788681790174451;;;-1.562;100.0
15558;BME280;7880;50.110;9.372;2023-03-16T03:51:33;-1.7091177601309027;;;-1.625;100.0
15558;BME280;7880;50.110;9.372;2023-03-16T03:56:39;-1.7544921121560038;;;-1.625;100.0
15558;BME280;7880;50.110;9.372;2023-03-16T04:01:41;-1.8049080312019214;;;-1.687;100.0
15558;BME280;7880;50.110;9.372;2023-03-16T04:06:51;-1.7192009515070823;;;-1.687;100.0
15558;BME280;7880;50.110;9.372;2023-03-16T04:11:50;-1.734325736388564;;;-1.687;100.0
15558;BME280;7880;50.110;9.372;2023-03-16T04:16:56;-1.618368985358393;;;-1.625;100.0
15558;BME280;7880;50.110;9.372;2023-03-16T04:22:00;-1.7040761640062556;;;-1.687;100.0
15558;BME280;7880;50.110;9.372;2023-03-16T04:27:11;-1.658701785787707;;;-1.625;100.0
15558;BME280;7880;50.110;9.372;2023-03-16T04:32:18;-1.618368985358393;;;-1.562;100.0
15558;BME280;7880;50.110;9.372;2023-03-16T04:37:16;-1.4872872553241905;;;-1.5;100.0
15558;BME280;7880;50.110;9.372;2023-03-16T04:42:31;-1.4822456463938578;;;-1.375;100.0
15558;BME280;7880;50.110;9.372;2023-03-16T04:47:33;-1.4721624276600778;;;-1.375;100.0
15558;BME280;7880;50.110;9.372;2023-03-16T04:52:29;-1.37133017629385;;;-1.312;100.0
15558;BME280;7880;50.110;9.372;2023-03-16T04:57:32;-1.3612469447543845;;;-1.25;100.0
15558;BME280;7880;50.110;9.372;2023-03-16T05:02:37;-1.300747531070374;;;-1.25;100.0
15558;BME280;7880;50.110;9.372;2023-03-16T05:07:44;-1.3259556251985487;;;-1.187;100.0
15558;BME280;7880;50.110;9.372;2023-03-16T05:12:48;-1.164623697049683;;;-1.125;100.0
15558;BME280;7880;50.110;9.372;2023-03-16T05:17:51;-1.1494988135062159;;;-1.062;100.0
15558;BME280;7880;50.110;9.372;2023-03-16T05:23:08;-1.0889992531389;;;-0.937;100.0
15558;BME280;7880;50.110;9.372;2023-03-16T05:27:59;-1.073874356498709;;;-1.0;100.0
15558;BME280;7880;50.110;9.372;2023-03-16T05:33:13;-1.043624555360293;;;-1.0;100.0
15558;BME280;7880;50.110;9.372;2023-03-16T05:38:08;-1.033541285985848;;;-0.937;100.0
15558;BME280;7880;50.110;9.372;2023-03-16T05:43:14;-0.9680000066757202;;;-0.875;100.0
15558;BME280;7880;50.110;9.372;2023-03-16T05:48:15;-0.9427918092289473;;;-0.875;100.0
15558;BME280;7880;50.110;9.372;2023-03-16T05:53:23;-0.872208817669889;;;-0.75;100.0
15558;BME280;7880;50.110;9.372;2023-03-16T05:58:27;-0.8923753925075288;;;-0.812;100.0
15558;BME280;7880;50.110;9.372;2023-03-16T06:03:30;-0.8016257690673229;;;-0.687;100.0
15558;BME280;7880;50.110;9.372;2023-03-16T06:08:47;-0.8419589466822799;;;-0.75;100.0
15558;BME280;7880;50.110;9.372;2023-03-16T06:13:50;-0.9125419626885559;;;-0.812;100.0
15558;BME280;7880;50.110;9.372;2023-03-16T06:18:44;-0.9075003205798566;;;-0.812;100.0
15558;BME280;7880;50.110;9.372;2023-03-16T06:23:50;-0.9075003205798566;;;-0.812;100.0
15558;BME280;7880;50.110;9.372;2023-03-16T06:28:55;-0.8318756540247705;;;-0.75;100.0
15558;BME280;7880;50.110;9.372;2023-03-16T06:33:57;-0.7865008226595819;;;-0.75;100.0
15558;BME280;7880;50.110;9.372;2023-03-16T06:39:00;-0.5898762809985783;;;-0.625;100.0
15558;BME280;7880;50.110;9.372;2023-03-16T06:44:05;-0.5898762809985783;;;-0.562;100.0
15558;BME280;7880;50.110;9.372;2023-03-16T06:49:09;-0.5394596605503466;;;-0.5;100.0
15558;BME280;7880;50.110;9.372;2023-03-16T06:54:15;-0.5394596605503466;;;-0.437;100.0
15558;BME280;7880;50.110;9.372;2023-03-16T06:59:27;-0.49912634323700333;;;-0.437;100.0
15558;BME280;7880;50.110;9.372;2023-03-16T07:04:21;-0.3882096245826688;;;-0.375;100.0
15558;BME280;7880;50.110;9.372;2023-03-16T07:09:22;-0.4083763111790176;;;-0.375;100.0
15558;BME280;7880;50.110;9.372;2023-03-16T07:14:28;-0.32266786098480227;;;-0.312;100.0
15558;BME280;7880;50.110;9.372;2023-03-16T07:19:31;-0.28233444355428217;;;-0.25;100.0
15558;BME280;7880;50.110;9.372;2023-03-16T07:24:44;-0.3075428316311445;;;-0.312;100.0
15558;BME280;7880;50.110;9.372;2023-03-16T07:29:46;-0.3075428316311445;;;-0.25;100.0
15558;BME280;7880;50.110;9.372;2023-03-16T07:34:46;-0.5445013239048422;;;-0.437;100.0
15558;BME280;7880;50.110;9.372;2023-03-16T07:39:55;-0.24200100749731063;;;-0.25;100.0
15558;BME280;7880;50.110;9.372;2023-03-16T07:44:55;-0.11595889976597391;;;-0.125;100.0
15558;BME280;7880;50.110;9.372;2023-03-16T07:49:58;0.015125085233012214;;;0.0;100.0
15558;BME280;7880;50.110;9.372;2023-03-16T07:55:01;-0.005041694495594129;;;0.062;100.0
15558;BME280;7880;50.110;9.372;2023-03-16T08:05:11;0.19158460649196057;;;0.25;100.0
15558;BME280;7880;50.110;9.372;2023-03-16T08:10:13;0.1764594906999264;;;0.312;100.0
15558;BME280;7880;50.110;9.372;2023-03-16T08:15:18;0.37308620030526074;;;0.375;100.0
15558;BME280;7880;50.110;9.372;2023-03-16T08:20:21;0.5243378166109324;;;0.562;100.0
15558;BME280;7880;50.110;9.372;2023-03-16T08:26:17;0.6453392982482911;;;0.625;100.0
15558;BME280;7880;50.110;9.372;2023-03-16T08:31:20;0.5646716251969337;;;0.625;100.0
15558;BME280;7880;50.110;9.372;2023-03-16T08:36:47;0.5697133525798563;;;0.625;100.0
15558;BME280;7880;50.110;9.372;2023-03-16T08:41:30;0.7310487825016025;;;0.75;100.0
15558;BME280;7880;50.110;9.372;2023-03-16T08:46:38;0.7915496455563698;;;0.875;100.0
15558;BME280;7880;50.110;9.372;2023-03-16T08:51:41;1.0688458041287958;;;1.125;100.0
15558;BME280;7880;50.110;9.372;2023-03-16T08:56:42;0.9428019865474198;;;1.062;100.0
15558;BME280;7880;50.110;9.372;2023-03-16T09:01:44;1.0436370260606054;;;1.125;100.0
15558;BME280;7880;50.110;9.372;2023-03-16T09:06:47;0.6554227626184002;;;0.875;100.0
15558;BME280;7880;50.110;9.372;2023-03-16T09:11:51;0.741132256767014;;;0.812;100.0
15558;BME280;7880;50.110;9.372;2023-03-16T09:16:56;0.8923845104465726;;;0.875;100.0
15558;BME280;7880;50.110;9.372;2023-03-16T09:21:59;0.816758350864984;;;0.875;100.0
15558;BME280;7880;50.110;9.372;2023-03-16T09:27:21;0.7612992087902967;;;0.75;100.0
15558;BME280;7880;50.110;9.372;2023-03-16T09:32:24;0.8823010187188629;;;0.875;100.0
15558;BME280;7880;50.110;9.372;2023-03-16T09:37:16;1.1343886611575726;;;1.125;100.0
15558;BME280;7880;50.110;9.372;2023-03-16T09:42:27;1.3663099348137622;;;1.375;100.0
15558;BME280;7880;50.110;9.372;2023-03-16T09:47:32;1.6637750786030665;;;1.687;100.0
15558;BME280;7880;50.110;9.372;2023-03-16T09:52:41;1.8654469387838617;;;1.875;100.0
15558;BME280;7880;50.110;9.372;2023-03-16T09:57:36;1.588148251088569;;;2.0;100.0
15558;BME280;7880;50.110;9.372;2023-03-16T10:02:47;1.8099871308135334;;;1.875;100.0
15558;BME280;7880;50.110;9.372;2023-03-16T10:08:54;1.9511576203687582;;;2.0;100.0
15558;BME280;7880;50.110;9.372;2023-03-16T10:13:44;2.0519938240351623;;;2.062;100.0
15558;BME280;7880;50.110;9.372;2023-03-16T10:18:58;2.2133319920452776;;;2.375;100.0
15558;BME280;7880;50.110;9.372;2023-03-16T10:23:51;1.8402379307954106;;;2.0;100.0
15558;BME280;7880;50.110;9.372;2023-03-16T10:29:39;1.8402379307954106;;;1.875;100.0
15558;BME280;7880;50.110;9.372;2023-03-16T10:34:37;1.6789004519640003;;;1.75;100.0
15558;BME280;7880;50.110;9.372;2023-03-16T10:39:47;1.7797363413090352;;;1.812;100.0
15558;BME280;7880;50.110;9.372;2023-03-16T10:44:47;1.5074797072506043;;;1.562;100.0
15558;BME280;7880;50.110;9.372;2023-03-16T10:49:55;1.3461428430920932;;;1.437;100.0
15558;BME280;7880;50.110;9.372;2023-03-16T10:55:00;1.4167276844906156;;;1.437;100.0
15558;BME280;7880;50.110;9.372;2023-03-16T11:00:13;1.4973961445095483;;;1.5;100.0
15558;BME280;7880;50.110;9.372;2023-03-16T11:05:26;1.7494855622819159;;;1.687;100.0
15558;BME280;7880;50.110;9.372;2023-03-16T11:10:17;1.6587332880648318;;;1.75;100.0
15558;BME280;7880;50.110;9.372;2023-03-16T11:15:14;1.9410740064049605;;;1.875;100.0
15558;BME280;7880;50.110;9.372;2023-03-16T11:20:22;2.2032483478134965;;;2.187;100.0
15558;BME280;7880;50.110;9.372;2023-03-16T11:25:32;2.243582931725541;;;2.312;100.0
15558;BME280;7880;50.110;9.372;2023-03-16T11:30:37;2.485590826353291;;;2.5;100.0
15558;BME280;7880;50.110;9.372;2023-03-16T11:35:38;2.3746704580786173;;;2.5;100.0
15558;BME280;7880;50.110;9.372;2023-03-16T11:40:55;2.7376830963010432;;;2.75;100.0
15558;BME280;7880;50.110;9.372;2023-03-16T11:46:00;2.9292737080773805;;;3.062;100.0
15558;BME280;7880;50.110;9.372;2023-03-16T11:51:01;3.0452366509474813;;;3.125;100.0
15558;BME280;7880;50.110;9.372;2023-03-16T11:56:04;3.0452366509474813;;;3.187;100.0
15558;BME280;7880;50.110;9.372;2023-03-16T12:01:11;3.5746346502623054;;;3.625;100.0
15558;BME280;7880;50.110;9.372;2023-03-16T12:06:16;3.6704308215528725;;;3.812;100.0
15558;BME280;7880;50.110;9.372;2023-03-16T12:12:01;3.9679038126079833;;;4.125;100.0
15558;BME280;7880;50.110;9.372;2023-03-16T12:17:04;4.1897487366164565;;;4.312;100.0
15558;BME280;7880;50.110;9.372;2023-03-16T12:22:16;4.209916484920541;;;4.375;100.0
15558;BME280;7880;50.110;9.372;2023-03-16T12:27:25;4.376300586108118;;;4.5;100.0
15558;BME280;7880;50.110;9.372;2023-03-16T12:32:20;4.638482237234712;;;4.75;100.0
15558;BME280;7880;50.110;9.372;2023-03-16T12:37:27;4.744363511732081;;;4.875;100.0
15558;BME280;7880;50.110;9.372;2023-03-16T12:42:39;5.1275539588707035;;;5.187;100.0
15558;BME280;7880;50.110;9.372;2023-03-16T12:47:35;5.1073859986907335;;;5.312;100.0
15558;BME280;7880;50.110;9.372;2023-03-16T12:52:40;5.248561817739391;;;5.437;100.0
15558;BME280;7880;50.110;9.372;2023-03-16T12:57:49;5.460325974138686;;;5.562;100.0
15558;BME280;7880;50.110;9.372;2023-03-16T13:02:52;5.651922558021033;;;5.75;100.0
15558;BME280;7880;50.110;9.372;2023-03-16T13:07:49;6.014948816836113;;;6.062;100.0
15558;BME280;7880;50.110;9.372;2023-03-16T13:12:52;6.125873807963217;;;6.312;100.0
15558;BME280;7880;50.110;9.372;2023-03-16T13:18:19;5.904023966571549;;;6.187;100.0
15558;BME280;7880;50.110;9.372;2023-03-16T13:21:35;6.519154457008699;;;6.75;100.0
15558;BME280;7880;50.110;9.372;2023-03-16T13:26:39;5.843519562162692;;;6.187;100.0
15558;BME280;7880;50.110;9.372;2023-03-16T13:31:41;5.924192110687727;;;6.062;100.0
15558;BME280;7880;50.110;9.372;2023-03-16T13:36:43;5.984696570975939;;;6.125;100.0
15558;BME280;7880;50.110;9.372;2023-03-16T13:42:11;6.282177443639375;;;6.375;100.0
15558;BME280;7880;50.110;9.372;2023-03-16T13:46:54;6.8922685044410175;;;6.937;100.0
15558;BME280;7880;50.110;9.372;2023-03-16T13:52:12;6.856973864138126;;;7.062;100.0
15558;BME280;7880;50.110;9.372;2023-03-16T13:57:08;6.509070315683493;;;6.812;100.0
15558;BME280;7880;50.110;9.372;2023-03-16T14:02:16;6.468733762024203;;;6.687;100.0
15558;BME280;7880;50.110;9.372;2023-03-16T14:07:14;6.53932274315157;;;6.75;100.0
15558;BME280;7880;50.110;9.372;2023-03-16T14:12:17;6.730921693757409;;;6.875;100.0
15558;BME280;7880;50.110;9.372;2023-03-16T14:17:23;6.730921693757409;;;6.937;100.0
15558;BME280;7880;50.110;9.372;2023-03-16T14:22:32;6.630080088420073;;;6.812;100.0
15558;BME280;7880;50.110;9.372;2023-03-16T14:27:42;6.771258368488634;;;6.937;100.0
15558;BME280;7880;50.110;9.372;2023-03-16T14:32:32;7.129247172945179;;;7.25;100.0
15558;BME280;7880;50.110;9.372;2023-03-16T14:37:37;6.937647348642349;;;7.187;100.0
15558;BME280;7880;50.110;9.372;2023-03-16T14:42:41;6.9023526900040455;;;7.062;100.0
15558;BME280;7880;50.110;9.372;2023-03-16T14:47:46;6.796468799654394;;;7.0;100.0
15558;BME280;7880;50.110;9.372;2023-03-16T14:52:53;6.872100136807421;;;7.0;100.0
15558;BME280;7880;50.110;9.372;2023-03-16T14:57:55;6.882184320042143;;;7.0;100.0
15558;BME280;7880;50.110;9.372;2023-03-16T15:03:03;6.897310597077012;;;7.125;100.0
15558;BME280;7880;50.110;9.372;2023-03-16T15:08:15;6.7510900287947155;;;6.937;100.0
15558;BME280;7880;50.110;9.372;2023-03-16T15:13:15;6.720837527984986;;;6.875;100.0
15558;BME280;7880;50.110;9.372;2023-03-16T15:18:15;6.715795445535332;;;6.875;100.0
15558;BME280;7880;50.110;9.372;2023-03-16T15:23:19;6.705711281509139;;;6.875;100.0
15558;BME280;7880;50.110;9.372;2023-03-16T15:28:23;6.730921693757409;;;6.812;100.0
15558;BME280;7880;50.110;9.372;2023-03-16T15:33:26;6.640164243715117;;;6.812;100.0
15558;BME280;7880;50.110;9.372;2023-03-16T15:38:30;6.640164243715117;;;6.812;100.0
15558;BME280;7880;50.110;9.372;2023-03-16T15:43:33;6.640164243715117;;;6.75;100.0
15558;BME280;7880;50.110;9.372;2023-03-16T15:48:36;6.635122165922075;;;6.75;100.0
15558;BME280;7880;50.110;9.372;2023-03-16T15:53:52;6.619995934289181;;;6.75;100.0
15558;BME280;7880;50.110;9.372;2023-03-16T15:58:53;6.529238599498058;;;6.687;100.0
15558;BME280;7880;50.110;9.372;2023-03-16T16:03:53;6.5241965281078595;;;6.687;100.0
15558;BME280;7880;50.110;9.372;2023-03-16T16:09:17;6.519154457008699;;;6.625;100.0
15558;BME280;7880;50.110;9.372;2023-03-16T16:14:01;6.544364815414883;;;6.687;100.0
15558;BME280;7880;50.110;9.372;2023-03-16T16:19:07;6.5241965281078595;;;6.625;100.0
15558;BME280;7880;50.110;9.372;2023-03-16T16:24:17;6.468733762024203;;;6.625;100.0
15558;BME280;7880;50.110;9.372;2023-03-16T16:29:26;6.388060710584978;;;6.5;100.0
15558;BME280;7880;50.110;9.372;2023-03-16T16:34:20;6.362850397289731;;;6.5;100.0
15558;BME280;7880;50.110;9.372;2023-03-16T16:39:22;6.292261558771133;;;6.375;100.0
15558;BME280;7880;50.110;9.372;2023-03-16T16:44:29;6.277135386510054;;;6.437;100.0
15558;BME280;7880;50.110;9.372;2023-03-16T16:49:31;6.226714831223944;;;6.375;100.0
15558;BME280;7880;50.110;9.372;2023-03-16T16:54:36;6.125873807963217;;;6.25;100.0
15558;BME280;7880;50.110;9.372;2023-03-16T16:59:47;6.045201073173667;;;6.125;100.0
15558;BME280;7880;50.110;9.372;2023-03-16T17:04:49;5.949402297381312;;;6.062;100.0
15558;BME280;7880;50.110;9.372;2023-03-16T17:09:50;5.89393989625969;;;6.0;100.0
15558;BME280;7880;50.110;9.372;2023-03-16T17:14:54;5.7830151996633505;;;5.875;100.0
15558;BME280;7880;50.110;9.372;2023-03-16T17:19:58;5.7426789812801875;;;5.812;100.0
15558;BME280;7880;50.110;9.372;2023-03-16T17:25:02;5.651922558021033;;;5.75;100.0
15558;BME280;7880;50.110;9.372;2023-03-16T17:30:20;5.5309141403588;;;5.625;100.0
15558;BME280;7880;50.110;9.372;2023-03-16T17:35:13;5.455283964448609;;;5.562;100.0
15558;BME280;7880;50.110;9.372;2023-03-16T17:40:16;5.359485835634405;;;5.437;100.0
15558;BME280;7880;50.110;9.372;2023-03-16T17:45:22;5.334275819198228;;;5.375;100.0
15558;BME280;7880;50.110;9.372;2023-03-16T17:50:26;5.349401828186819;;;5.437;100.0
15558;BME280;7880;50.110;9.372;2023-03-16T17:55:28;5.193099861615337;;;5.312;100.0
15558;BME280;7880;50.110;9.372;2023-03-16T18:00:35;5.18805786735029;;;5.25;100.0
15558;BME280;7880;50.110;9.372;2023-03-16T18:05:38;5.1477219237072855;;;5.187;100.0
15558;BME280;7880;50.110;9.372;2023-03-16T18:10:41;5.072092079580761;;;5.125;100.0
15558;BME280;7880;50.110;9.372;2023-03-16T18:15:49;5.001504284143448;;;5.062;100.0
15558;BME280;7880;50.110;9.372;2023-03-16T18:20:54;5.006546267640078;;;5.062;100.0
15558;BME280;7880;50.110;9.372;2023-03-16T18:25:42;4.860328864399344;;;4.937;100.0
15558;BME280;7880;50.110;9.372;2023-03-16T18:30:49;4.840160965919495;;;4.875;100.0
15558;BME280;7880;50.110;9.372;2023-03-16T18:35:57;4.789741240092553;;;4.812;100.0
15558;BME280;7880;50.110;9.372;2023-03-16T18:40:58;4.789741240092553;;;4.812;100.0
15558;BME280;7880;50.110;9.372;2023-03-16T18:46:15;4.633440274983878;;;4.75;100.0
15558;BME280;7880;50.110;9.372;2023-03-16T18:51:08;4.668734016851522;;;4.687;100.0
15558;BME280;7880;50.110;9.372;2023-03-16T18:56:16;4.633440274983878;;;4.687;100.0
15558;BME280;7880;50.110;9.372;2023-03-16T19:01:21;4.593104587454581;;;4.625;100.0
15558;BME280;7880;50.110;9.372;2023-03-16T19:06:23;4.552768918551737;;;4.625;100.0
15558;BME280;7880;50.110;9.372;2023-03-16T19:11:27;4.5275591349462045;;;4.562;100.0
15558;BME280;7880;50.110;9.372;2023-03-16T19:16:39;4.482181542791659;;;4.5;100.0
15558;BME280;7880;50.110;9.372;2023-03-16T19:21:34;4.376300586108118;;;4.437;100.0
15558;BME280;7880;50.110;9.372;2023-03-16T19:26:38;4.391426429204875;;;4.437;100.0
15558;BME280;7880;50.110;9.372;2023-03-16T19:31:43;4.401510326057905;;;4.5;100.0
15558;BME280;7880;50.110;9.372;2023-03-16T19:36:46;4.265377816767431;;;4.375;100.0
15558;BME280;7880;50.110;9.372;2023-03-16T19:41:58;4.346048907772638;;;4.375;100.0
15558;BME280;7880;50.110;9.372;2023-03-16T19:46:55;4.250251995498547;;;4.312;100.0
15558;BME280;7880;50.110;9.372;2023-03-16T19:52:01;4.230084237881238;;;4.312;100.0
15558;BME280;7880;50.110;9.372;2023-03-16T19:57:11;4.2401681161078155;;;4.312;100.0
15558;BME280;7880;50.110;9.372;2023-03-16T20:02:26;4.199832610186422;;;4.25;100.0
15558;BME280;7880;50.110;9.372;2023-03-16T20:07:13;4.139329386228928;;;4.25;100.0
15558;BME280;7880;50.110;9.372;2023-03-16T20:12:20;4.0485746288730295;;;4.125;100.0
15558;BME280;7880;50.110;9.372;2023-03-16T20:17:25;4.653608125733444;;;4.562;100.0
15558;BME280;7880;50.110;9.372;2023-03-16T20:22:27;4.15949712289148;;;4.25;100.0
15558;BME280;7880;50.110;9.372;2023-03-16T20:27:29;4.05865848614485;;;4.062;100.0
15558;BME280;7880;50.110;9.372;2023-03-16T20:32:32;3.9628618890652434;;;4.0;100.0
15558;BME280;7880;50.110;9.372;2023-03-16T20:37:44;3.912442669644952;;;4.0;100.0
15558;BME280;7880;50.110;9.372;2023-03-16T20:42:40;3.927568432415137;;;4.0;100.0
15558;BME280;7880;50.110;9.372;2023-03-16T20:47:49;3.9779876605665776;;;4.0;100.0
15558;BME280;7880;50.110;9.372;2023-03-16T20:52:49;3.927568432415137;;;4.0;100.0
15558;BME280;7880;50.110;9.372;2023-03-16T20:57:52;4.104035858274438;;;4.187;100.0
15558;BME280;7880;50.110;9.372;2023-03-16T21:02:56;3.957819965813542;;;4.062;100.0
15558;BME280;7880;50.110;9.372;2023-03-16T21:07:59;3.937652275717119;;;4.0;100.0
15558;BME280;7880;50.110;9.372;2023-03-16T21:13:03;3.8821911519626155;;;3.937;100.0
15558;BME280;7880;50.110;9.372;2023-03-16T21:18:17;3.826730063423747;;;3.937;100.0
15558;BME280;7880;50.110;9.372;2023-03-16T21:23:18;3.7208499012747778;;;3.812;100.0
15558;BME280;7880;50.110;9.372;2023-03-16T21:28:19;3.6401793876895683;;;3.75;100.0
15558;BME280;7880;50.110;9.372;2023-03-16T21:33:26;3.6956403577758463;;;3.75;100.0
15558;BME280;7880;50.110;9.372;2023-03-16T21:38:26;3.5847184528189246;;;3.625;100.0
15558;BME280;7880;50.110;9.372;2023-03-16T21:43:30;3.347749400511384;;;3.375;100.0
15558;BME280;7880;50.110;9.372;2023-03-16T21:49:08;3.38808451294899;;;3.375;100.0
15558;BME280;7880;50.110;9.372;2023-03-16T21:53:49;3.38808451294899;;;3.375;100.0
15558;BME280;7880;50.110;9.372;2023-03-16T21:58:55;3.3679169544018803;;;3.375;100.0
15558;BME280;7880;50.110;9.372;2023-03-16T22:04:02;3.322539964696625;;;3.312;100.0
15558;BME280;7880;50.110;9.372;2023-03-16T22:09:02;3.256995465629734;;;3.312;100.0
15558;BME280;7880;50.110;9.372;2023-03-16T22:14:09;3.3427075127663555;;;3.312;100.0
15558;BME280;7880;50.110;9.372;2023-03-16T22:19:10;3.3074143067002297;;;3.312;100.0
15558;BME280;7880;50.110;9.372;2023-03-16T22:24:25;3.2922886513231786;;;3.312;100.0
15558;BME280;7880;50.110;9.372;2023-03-16T22:29:23;3.1864091370254757;;;3.187;100.0
15558;BME280;7880;50.110;9.372;2023-03-16T22:34:28;3.0855716236867012;;;3.125;100.0
15558;BME280;7880;50.110;9.372;2023-03-16T22:39:37;3.125906615052372;;;3.062;100.0
15558;BME280;7880;50.110;9.372;2023-03-16T22:44:33;3.1158228654647244;;;3.125;100.0
15558;BME280;7880;50.110;9.372;2023-03-16T22:49:36;3.1006972432660405;;;3.125;100.0
15558;BME280;7880;50.110;9.372;2023-03-16T22:54:40;3.1511159941146616;;;3.187;100.0
15558;BME280;7880;50.110;9.372;2023-03-16T22:59:47;3.0603622635419017;;;3.062;100.0
15558;BME280;7880;50.110;9.372;2023-03-16T23:04:48;3.0704460067267063;;;3.062;100.0
15558;BME280;7880;50.110;9.372;2023-03-16T23:09:52;3.0049016968347133;;;3.0;100.0
15558;BME280;7880;50.110;9.372;2023-03-16T23:14:55;2.989776093844557;;;2.937;100.0
15558;BME280;7880;50.110;9.372;2023-03-16T23:19:59;2.9292737080773805;;;2.937;100.0
15558;BME280;7880;50.110;9.372;2023-03-16T23:25:06;2.858687644317979;;;2.875;100.0
15558;BME280;7880;50.110;9.372;2023-03-16T23:29:56;2.7578505093290007;;;2.75;100.0
15558;BME280;7880;50.110;9.372;2023-03-16T23:34:59;2.657013490755344;;;2.687;100.0
15558;BME280;7880;50.110;9.372;2023-03-16T23:40:04;2.727599391533295;;;2.687;100.0
15558;BME280;7880;50.110;9.372;2023-03-16T23:45:29;2.803227205667645;;;2.812;100.0
15558;BME280;7880;50.110;9.372;2023-03-16T23:50:23;2.7679342175892088;;;2.75;100.0
15558;BME280;7880;50.110;9.372;2023-03-16T23:55:16;2.7981853493547533;;;2.812;100.0
